Time;durP1;ratioP1;P1;durP2;ratioP2;P2;SDS_P1;SDS_P2;PMS_P1;PMS_P2;Temp;Humidity;BMP_temperature;BMP_pressure;BME280_temperature;BME280_humidity;BME280_pressure;Samples;Min_cycle;Max_cycle;Signal;HPM_P1;HPM_P2
2021/12/26 00:01:55;;;;;;;5.27;2.80;;;;;;;6.41;96.39;95244.69;5036762;28;20210;-73
2021/12/26 00:04:22;;;;;;;2.47;2.00;;;;;;;6.47;95.99;95249.22;5034103;28;20213;-73
2021/12/26 00:06:49;;;;;;;1.87;1.03;;;;;;;6.64;95.51;95243.66;5036689;28;20194;-73
2021/12/26 00:09:15;;;;;;;4.10;1.43;;;;;;;6.53;95.43;95245.88;5036270;28;20278;-73
2021/12/26 00:11:42;;;;;;;3.40;1.83;;;;;;;6.64;95.17;95251.50;5035946;28;20216;-73
2021/12/26 00:14:10;;;;;;;2.87;2.03;;;;;;;6.80;95.36;95243.50;5034989;28;20236;-73
2021/12/26 00:16:36;;;;;;;3.00;1.30;;;;;;;6.55;95.29;95246.53;5036268;28;20206;-73
2021/12/26 00:19:03;;;;;;;4.20;2.23;;;;;;;6.39;96.34;95249.25;5036293;28;20209;-73
2021/12/26 00:21:29;;;;;;;4.10;1.63;;;;;;;6.46;96.21;95250.19;5035783;28;20209;-72
2021/12/26 00:23:58;;;;;;;2.63;1.73;;;;;;;6.52;96.09;95247.69;5035818;28;20224;-72
2021/12/26 00:26:24;;;;;;;3.53;2.30;;;;;;;6.49;95.64;95244.59;5036727;28;20205;-70
2021/12/26 00:28:51;;;;;;;2.37;2.03;;;;;;;6.59;95.33;95240.75;5035645;28;20585;-70
2021/12/26 00:31:19;;;;;;;4.57;3.07;;;;;;;6.75;95.73;95244.03;5034924;28;20201;-69
2021/12/26 00:33:46;;;;;;;2.40;1.50;;;;;;;6.62;95.27;95236.97;5036432;28;20286;-69
2021/12/26 00:36:13;;;;;;;4.07;2.00;;;;;;;6.50;95.13;95244.41;5036650;28;20223;-69
2021/12/26 00:38:39;;;;;;;3.73;1.90;;;;;;;6.49;94.69;95247.22;5036412;28;21365;-69
2021/12/26 00:41:06;;;;;;;5.30;2.13;;;;;;;6.20;95.26;95244.50;5037521;28;20858;-69
2021/12/26 00:43:32;;;;;;;7.20;1.60;;;;;;;6.43;95.77;95248.75;5035812;28;20224;-69
2021/12/26 00:46:00;;;;;;;1.87;1.50;;;;;;;6.15;95.74;95246.84;5036328;28;20208;-69
2021/12/26 00:48:28;;;;;;;2.93;2.20;;;;;;;6.46;97.01;95251.00;5036085;28;20209;-70
2021/12/26 00:50:55;;;;;;;2.27;1.50;;;;;;;6.10;97.07;95251.78;5036974;28;20205;-69
2021/12/26 00:53:22;;;;;;;8.03;2.37;;;;;;;6.25;96.26;95248.22;5035888;28;20505;-70
2021/12/26 00:55:49;;;;;;;3.33;2.53;;;;;;;6.36;95.18;95245.19;5036617;28;20235;-70
2021/12/26 00:58:15;;;;;;;2.63;1.67;;;;;;;6.28;95.65;95250.47;5037095;28;20201;-70
2021/12/26 01:00:45;;;;;;;3.53;2.13;;;;;;;6.21;97.23;95241.72;5036363;28;20201;-70
2021/12/26 01:03:13;;;;;;;6.43;2.30;;;;;;;6.33;96.73;95244.75;5035361;28;20224;-70
2021/12/26 01:05:44;;;;;;;3.70;2.43;;;;;;;6.55;95.88;95242.09;5036164;28;21177;-69
2021/12/26 01:08:14;;;;;;;6.47;2.63;;;;;;;6.01;97.38;95236.28;5036221;28;20209;-70
2021/12/26 01:10:45;;;;;;;5.53;3.40;;;;;;;6.34;96.62;95238.50;5036296;28;20288;-73
2021/12/26 01:13:20;;;;;;;4.47;2.87;;;;;;;6.39;95.93;95234.38;5035383;28;20224;-72
2021/12/26 01:15:48;;;;;;;2.60;2.40;;;;;;;6.07;96.13;95234.63;5036436;28;20200;-72
2021/12/26 01:18:15;;;;;;;9.73;2.90;;;;;;;6.01;96.34;95237.13;5036192;28;20212;-72
2021/12/26 01:20:50;;;;;;;4.47;2.63;;;;;;;6.01;96.75;95244.97;5036423;28;20232;-72
2021/12/26 01:23:19;;;;;;;6.13;3.77;;;;;;;6.21;96.79;95241.72;5035348;28;20224;-72
2021/12/26 01:25:47;;;;;;;8.93;3.83;;;;;;;5.97;96.89;95233.25;5036196;28;20227;-72
2021/12/26 01:28:15;;;;;;;3.57;1.77;;;;;;;5.65;97.93;95248.25;5036166;28;20212;-72
2021/12/26 01:30:42;;;;;;;7.17;2.73;;;;;;;5.65;98.18;95246.47;5036180;28;20224;-72
2021/12/26 01:33:10;;;;;;;5.40;3.03;;;;;;;5.76;98.30;95247.91;5035267;28;20233;-72
2021/12/26 01:35:37;;;;;;;2.97;2.23;;;;;;;5.65;97.98;95249.06;5036658;28;20209;-72
2021/12/26 01:38:10;;;;;;;5.27;3.20;;;;;;;6.09;97.19;95253.56;5035886;28;20206;-72
2021/12/26 01:40:39;;;;;;;6.23;2.70;;;;;;;5.72;97.05;95259.66;5035768;28;20216;-72
2021/12/26 01:43:06;;;;;;;4.77;2.83;;;;;;;5.34;98.16;95260.47;5035645;28;20724;-72
2021/12/26 01:45:33;;;;;;;9.10;3.13;;;;;;;5.73;96.83;95262.09;5036274;28;20197;-72
2021/12/26 01:48:01;;;;;;;5.37;3.70;;;;;;;5.56;98.16;95254.50;5035317;28;20205;-72
2021/12/26 01:50:28;;;;;;;5.37;2.30;;;;;;;5.56;97.63;95259.72;5035821;28;20212;-72
2021/12/26 01:52:55;;;;;;;5.87;3.90;;;;;;;5.29;97.53;95257.53;5035862;28;20229;-72
2021/12/26 01:55:25;;;;;;;9.63;2.60;;;;;;;5.37;98.26;95262.72;5035549;28;20207;-72
2021/12/26 01:57:55;;;;;;;5.60;3.53;;;;;;;5.45;98.08;95260.91;5035548;28;20201;-71
2021/12/26 02:00:22;;;;;;;5.57;2.87;;;;;;;5.68;97.49;95253.94;5037160;28;20208;-72
2021/12/26 02:02:50;;;;;;;4.27;3.17;;;;;;;5.72;96.56;95255.22;5038785;28;20207;-72
2021/12/26 02:05:18;;;;;;;4.80;3.37;;;;;;;5.63;96.80;95253.63;5039453;28;20206;-72
2021/12/26 02:07:44;;;;;;;4.97;2.40;;;;;;;5.52;96.67;95258.44;5039199;28;20275;-72
2021/12/26 02:10:11;;;;;;;7.83;4.77;;;;;;;5.48;97.21;95262.38;5039468;28;20212;-72
2021/12/26 02:12:39;;;;;;;9.33;4.47;;;;;;;5.44;97.34;95264.50;5038557;28;20200;-72
2021/12/26 02:15:07;;;;;;;6.10;3.40;;;;;;;5.66;97.35;95257.72;5039543;28;20233;-72
2021/12/26 02:17:33;;;;;;;5.80;3.27;;;;;;;5.50;96.75;95252.56;5038837;28;20201;-72
2021/12/26 02:20:27;;;;;;;8.30;3.13;;;;;;;5.97;95.87;95263.78;5039265;28;20216;-72
2021/12/26 02:22:58;;;;;;;8.33;4.43;;;;;;;5.51;96.17;95255.00;5038126;28;20343;-71
2021/12/26 02:27:30;;;;;;;5.70;3.03;;;;;;;5.58;96.06;95253.34;5039202;28;20209;-72
2021/12/26 02:28:16;;;;;;;4.40;2.70;;;;;;;5.78;96.84;95253.75;5038756;28;20215;-72
2021/12/26 02:30:44;;;;;;;9.93;4.73;;;;;;;5.83;95.82;95248.81;5039092;28;20205;-72
2021/12/26 02:33:12;;;;;;;7.70;4.47;;;;;;;5.46;95.98;95252.09;5038219;28;20266;-72
2021/12/26 02:35:42;;;;;;;8.23;2.40;;;;;;;5.78;96.04;95251.97;5038722;28;20735;-72
2021/12/26 02:38:09;;;;;;;5.60;3.47;;;;;;;5.63;96.40;95261.47;5039133;28;20212;-72
2021/12/26 02:40:39;;;;;;;11.63;4.33;;;;;;;4.94;98.63;95263.19;5038870;28;20216;-72
2021/12/26 02:43:07;;;;;;;6.63;3.03;;;;;;;5.43;97.68;95262.06;5038400;28;20228;-72
2021/12/26 02:45:34;;;;;;;6.63;4.27;;;;;;;5.54;96.58;95254.66;5038833;28;20205;-72
2021/12/26 02:48:00;;;;;;;4.67;3.57;;;;;;;5.45;95.88;95258.28;5038874;28;20213;-72
2021/12/26 02:50:30;;;;;;;8.13;3.90;;;;;;;5.65;95.72;95263.91;5038564;28;20213;-72
2021/12/26 02:52:59;;;;;;;7.13;2.57;;;;;;;5.70;95.73;95261.59;5038002;28;20221;-72
2021/12/26 02:55:27;;;;;;;4.37;3.67;;;;;;;5.55;95.78;95258.13;5039524;28;20580;-72
2021/12/26 02:57:57;;;;;;;6.77;4.03;;;;;;;5.49;97.00;95254.34;5038434;28;20587;-72
2021/12/26 03:00:26;;;;;;;11.27;5.47;;;;;;;5.23;98.84;95258.25;5038270;28;20212;-72
2021/12/26 03:02:55;;;;;;;9.03;4.17;;;;;;;5.02;99.12;95255.34;5037341;28;20212;-72
2021/12/26 03:05:25;;;;;;;9.53;4.27;;;;;;;5.15;99.12;95253.00;5038105;28;20205;-72
2021/12/26 03:07:51;;;;;;;6.23;2.67;;;;;;;5.23;97.52;95257.41;5038138;28;20208;-71
2021/12/26 03:10:22;;;;;;;9.20;3.60;;;;;;;5.54;97.30;95256.47;5038227;28;20212;-72
2021/12/26 03:12:50;;;;;;;13.20;4.80;;;;;;;5.12;97.04;95255.16;5037229;28;20209;-72
2021/12/26 03:15:17;;;;;;;6.00;3.43;;;;;;;5.14;98.08;95248.81;5037811;28;20302;-72
2021/12/26 03:17:43;;;;;;;13.53;3.63;;;;;;;5.07;97.45;95253.03;5038109;28;20737;-72
2021/12/26 03:20:11;;;;;;;9.93;4.90;;;;;;;5.20;98.50;95255.94;5037968;28;20232;-72
2021/12/26 03:22:38;;;;;;;5.63;2.87;;;;;;;5.11;97.99;95261.38;5036821;28;20575;-72
2021/12/26 03:25:10;;;;;;;6.73;3.83;;;;;;;5.45;96.96;95252.28;5034558;28;20997;-72
2021/12/26 03:27:38;;;;;;;9.30;3.30;;;;;;;5.42;97.31;95251.78;5037928;28;20208;-72
2021/12/26 03:30:06;;;;;;;8.17;4.53;;;;;;;5.32;96.79;95256.38;5037415;28;20677;-72
2021/12/26 03:32:33;;;;;;;6.93;3.03;;;;;;;5.40;96.38;95259.78;5036437;28;20205;-72
2021/12/26 03:34:59;;;;;;;12.30;4.13;;;;;;;5.23;95.81;95263.47;5037922;28;20689;-72
2021/12/26 03:37:26;;;;;;;11.93;4.90;;;;;;;5.08;97.05;95272.97;5037602;28;20224;-72
2021/12/26 03:39:53;;;;;;;6.27;3.93;;;;;;;5.42;95.74;95268.25;5037476;28;20617;-71
2021/12/26 03:42:21;;;;;;;9.13;3.93;;;;;;;5.29;96.51;95278.44;5036782;28;20604;-72
2021/12/26 03:44:49;;;;;;;16.07;4.07;;;;;;;5.69;96.07;95275.66;5037691;28;20971;-72
2021/12/26 03:47:16;;;;;;;7.87;2.60;;;;;;;5.63;95.22;95276.34;5035096;28;20882;-72
2021/12/26 03:49:43;;;;;;;9.73;4.50;;;;;;;5.50;95.00;95276.09;5036919;28;20205;-72
2021/12/26 03:52:09;;;;;;;7.87;3.93;;;;;;;5.63;94.83;95278.97;5036392;28;20684;-72
2021/12/26 03:54:36;;;;;;;5.23;3.30;;;;;;;5.69;93.95;95275.66;5035987;28;20228;-72
2021/12/26 03:57:03;;;;;;;6.80;3.60;;;;;;;5.51;94.01;95264.63;5035938;28;20224;-72
2021/12/26 03:59:29;;;;;;;7.17;3.90;;;;;;;5.57;94.07;95266.56;5035831;28;20205;-72
2021/12/26 04:01:58;;;;;;;5.87;4.53;;;;;;;5.81;93.76;95272.53;5035539;28;20209;-72
2021/12/26 04:04:25;;;;;;;7.93;4.00;;;;;;;5.38;95.40;95277.41;5034952;28;20221;-72
2021/12/26 04:06:52;;;;;;;6.90;3.47;;;;;;;5.28;95.80;95281.22;5035956;28;20212;-72
2021/12/26 04:09:19;;;;;;;9.37;4.97;;;;;;;5.51;95.23;95272.47;5035378;28;20208;-72
2021/12/26 04:11:46;;;;;;;7.13;4.53;;;;;;;5.57;94.52;95272.59;5035132;28;20692;-72
2021/12/26 04:14:12;;;;;;;10.43;5.67;;;;;;;5.43;94.82;95275.13;5034725;28;20829;-72
2021/12/26 04:16:39;;;;;;;8.83;3.80;;;;;;;5.43;94.05;95281.19;5035411;28;20203;-72
2021/12/26 04:19:07;;;;;;;14.80;5.37;;;;;;;5.05;96.75;95278.53;5035252;28;20209;-72
2021/12/26 04:21:34;;;;;;;7.27;3.43;;;;;;;5.33;95.70;95276.31;5035681;28;20990;-72
2021/12/26 04:24:01;;;;;;;15.33;4.47;;;;;;;5.25;95.49;95266.69;5035418;28;20229;-72
2021/12/26 04:26:28;;;;;;;7.57;3.10;;;;;;;5.33;95.59;95274.50;5037043;28;20201;-72
2021/12/26 04:28:55;;;;;;;9.47;5.73;;;;;;;4.86;97.04;95278.88;5036996;28;20204;-72
2021/12/26 04:31:21;;;;;;;9.00;3.97;;;;;;;4.72;97.55;95280.53;5036452;28;20214;-72
2021/12/26 04:33:48;;;;;;;5.73;3.40;;;;;;;5.02;97.29;95271.00;5035913;28;20244;-72
2021/12/26 04:36:16;;;;;;;12.53;4.40;;;;;;;5.22;96.51;95277.50;5036915;28;20231;-72
2021/12/26 04:38:43;;;;;;;11.33;5.60;;;;;;;5.00;97.20;95275.59;5036379;28;20197;-72
2021/12/26 04:41:11;;;;;;;14.83;5.43;;;;;;;5.19;95.89;95277.00;5036698;28;20604;-72
2021/12/26 04:43:39;;;;;;;12.30;5.00;;;;;;;5.34;95.41;95272.72;5035875;28;20391;-72
2021/12/26 04:46:08;;;;;;;10.73;5.37;;;;;;;5.41;95.72;95279.72;5036708;28;20201;-72
2021/12/26 04:48:35;;;;;;;6.27;4.23;;;;;;;5.19;95.56;95282.22;5036384;28;20205;-72
2021/12/26 04:51:02;;;;;;;15.40;5.40;;;;;;;5.02;95.87;95275.41;5036797;28;20220;-72
2021/12/26 04:53:30;;;;;;;7.10;3.83;;;;;;;5.23;96.21;95281.75;5035887;28;20232;-72
2021/12/26 04:55:56;;;;;;;12.43;4.10;;;;;;;5.15;96.03;95281.75;5036449;28;20232;-72
2021/12/26 04:58:23;;;;;;;8.90;4.33;;;;;;;5.40;95.78;95278.09;5036658;28;20212;-72
2021/12/26 05:00:49;;;;;;;11.07;5.10;;;;;;;5.03;96.25;95277.88;5036697;28;20236;-72
2021/12/26 05:03:16;;;;;;;7.87;4.33;;;;;;;5.18;96.85;95285.81;5032675;28;20225;-72
2021/12/26 05:05:44;;;;;;;8.67;4.77;;;;;;;5.21;95.68;95283.69;5036414;28;20235;-72
2021/12/26 05:08:12;;;;;;;10.17;6.67;;;;;;;5.47;95.41;95289.47;5036970;28;20205;-72
2021/12/26 05:10:40;;;;;;;12.33;4.13;;;;;;;5.38;96.34;95281.84;5035965;28;20197;-72
2021/12/26 05:13:07;;;;;;;10.40;4.97;;;;;;;5.13;96.10;95293.31;5035016;28;20217;-72
2021/12/26 05:15:34;;;;;;;6.43;2.93;;;;;;;5.34;95.39;95293.63;5036689;28;20221;-72
2021/12/26 05:18:00;;;;;;;8.57;5.10;;;;;;;5.42;94.65;95289.16;5037059;28;20205;-72
2021/12/26 05:20:29;;;;;;;11.43;4.67;;;;;;;5.50;95.44;95291.75;5035690;28;20201;-72
2021/12/26 05:22:57;;;;;;;13.53;6.03;;;;;;;5.41;95.18;95290.16;5035147;28;20251;-72
2021/12/26 05:25:26;;;;;;;9.23;4.33;;;;;;;5.45;94.71;95291.44;5036348;28;20291;-73
2021/12/26 05:27:54;;;;;;;10.37;6.10;;;;;;;5.40;95.81;95293.75;5036477;28;20227;-72
2021/12/26 05:30:23;;;;;;;7.43;4.67;;;;;;;5.64;94.74;95288.44;5036380;28;20577;-72
2021/12/26 05:32:50;;;;;;;9.10;5.57;;;;;;;5.49;94.31;95290.94;5035001;28;20216;-72
2021/12/26 05:35:18;;;;;;;10.67;3.97;;;;;;;5.44;95.01;95292.44;5038083;28;20235;-72
2021/12/26 05:37:45;;;;;;;8.37;4.70;;;;;;;5.29;95.55;95294.09;5039554;28;20197;-72
2021/12/26 05:40:13;;;;;;;7.50;4.50;;;;;;;5.43;95.24;95290.00;5040092;28;21065;-72
2021/12/26 05:42:40;;;;;;;3.87;3.27;;;;;;;5.23;96.15;95297.41;5038757;28;20200;-72
2021/12/26 05:45:10;;;;;;;7.20;3.67;;;;;;;5.42;95.69;95296.19;5039555;28;20213;-71
2021/12/26 05:47:36;;;;;;;19.17;3.43;;;;;;;5.38;95.24;95287.06;5040351;28;20465;-72
2021/12/26 05:50:05;;;;;;;13.37;5.07;;;;;;;5.56;94.83;95294.50;5040068;28;21322;-72
2021/12/26 05:52:31;;;;;;;10.00;4.20;;;;;;;5.41;94.15;95297.16;5039086;28;20240;-72
2021/12/26 05:54:58;;;;;;;7.20;4.03;;;;;;;4.97;95.89;95299.41;5038914;28;20717;-72
2021/12/26 05:57:25;;;;;;;11.30;5.07;;;;;;;5.12;95.83;95302.97;5039912;28;20217;-72
2021/12/26 05:59:52;;;;;;;7.93;3.83;;;;;;;5.24;95.12;95295.59;5039783;28;20648;-72
2021/12/26 06:02:19;;;;;;;14.97;4.00;;;;;;;5.10;96.29;95304.13;5038701;28;20853;-72
2021/12/26 06:04:46;;;;;;;8.70;5.77;;;;;;;5.09;95.81;95298.09;5039844;28;20213;-72
2021/12/26 06:07:12;;;;;;;10.87;5.27;;;;;;;4.99;96.18;95307.06;5039420;28;20215;-72
2021/12/26 06:09:39;;;;;;;6.03;3.93;;;;;;;4.96;96.39;95297.78;5039008;28;20208;-72
2021/12/26 06:12:07;;;;;;;12.73;5.33;;;;;;;5.35;95.77;95301.28;5039519;28;20209;-72
2021/12/26 06:14:33;;;;;;;8.93;3.57;;;;;;;5.22;95.33;95302.78;5039029;28;20752;-72
2021/12/26 06:16:59;;;;;;;10.40;2.93;;;;;;;5.15;95.27;95304.44;5038837;28;21131;-72
2021/12/26 06:19:27;;;;;;;14.10;4.90;;;;;;;5.40;95.22;95305.97;5039839;28;20584;-72
2021/12/26 06:21:54;;;;;;;16.47;6.30;;;;;;;5.00;94.85;95306.91;5039361;28;20208;-72
2021/12/26 06:24:20;;;;;;;8.70;3.87;;;;;;;4.94;95.39;95304.97;5037996;28;20225;-72
2021/12/26 06:26:47;;;;;;;8.80;4.60;;;;;;;4.87;96.65;95308.41;5039367;28;20296;-72
2021/12/26 06:29:14;;;;;;;7.40;3.93;;;;;;;4.91;97.56;95305.31;5039905;28;20237;-72
2021/12/26 06:31:41;;;;;;;14.97;3.77;;;;;;;4.49;97.68;95303.03;5038474;28;20204;-72
2021/12/26 06:34:07;;;;;;;3.83;3.37;;;;;;;4.60;98.92;95300.09;5037551;28;20228;-72
2021/12/26 06:36:35;;;;;;;10.10;4.20;;;;;;;5.01;98.51;95305.13;5039233;28;20225;-72
2021/12/26 06:39:02;;;;;;;9.23;4.23;;;;;;;4.91;97.45;95304.47;5038738;28;20220;-72
2021/12/26 06:41:28;;;;;;;11.87;4.17;;;;;;;4.86;97.35;95310.19;5038635;28;20209;-72
2021/12/26 06:43:54;;;;;;;11.97;4.07;;;;;;;4.88;97.14;95305.63;5038308;28;20220;-72
2021/12/26 06:46:21;;;;;;;13.90;5.30;;;;;;;4.97;96.95;95299.41;5037635;28;20574;-72
2021/12/26 06:48:48;;;;;;;6.47;3.87;;;;;;;4.78;97.79;95298.94;5038634;28;20202;-73
2021/12/26 06:51:14;;;;;;;11.33;3.97;;;;;;;5.05;97.23;95307.25;5039731;28;20208;-73
2021/12/26 06:53:42;;;;;;;11.47;3.20;;;;;;;5.34;96.50;95301.44;5037898;28;20799;-73
2021/12/26 06:56:09;;;;;;;11.10;3.30;;;;;;;5.19;95.68;95306.53;5038234;28;20225;-73
2021/12/26 06:58:35;;;;;;;7.53;3.67;;;;;;;5.28;95.66;95315.97;5039365;28;20204;-72
2021/12/26 07:01:02;;;;;;;9.97;4.37;;;;;;;5.16;96.30;95313.91;5038616;28;20292;-72
2021/12/26 07:03:28;;;;;;;8.17;3.37;;;;;;;5.25;95.82;95316.31;5037751;28;20225;-72
2021/12/26 07:05:55;;;;;;;8.53;3.73;;;;;;;4.71;96.85;95325.84;5038349;28;20211;-73
2021/12/26 07:08:22;;;;;;;7.50;3.50;;;;;;;5.23;96.30;95326.13;5038391;28;20215;-72
2021/12/26 07:10:50;;;;;;;5.50;2.80;;;;;;;5.31;95.83;95323.50;5038317;28;20787;-72
2021/12/26 07:13:16;;;;;;;10.57;3.10;;;;;;;5.25;95.33;95329.38;5037599;28;20259;-72
2021/12/26 07:15:43;;;;;;;4.63;3.03;;;;;;;5.36;94.78;95334.25;5037849;28;20232;-73
2021/12/26 07:18:10;;;;;;;5.53;2.63;;;;;;;5.43;94.30;95326.56;5038374;28;20201;-72
2021/12/26 07:20:37;;;;;;;19.13;4.83;;;;;;;5.43;94.25;95328.19;5038404;28;20209;-72
2021/12/26 07:23:05;;;;;;;7.17;3.60;;;;;;;5.60;94.83;95339.38;5037112;28;20231;-72
2021/12/26 07:25:31;;;;;;;5.00;4.13;;;;;;;5.20;94.67;95336.88;5037485;28;20205;-72
2021/12/26 07:28:00;;;;;;;8.47;2.60;;;;;;;5.26;96.72;95335.44;5037487;28;20212;-72
2021/12/26 07:30:27;;;;;;;6.00;3.60;;;;;;;5.08;95.99;95343.44;5037239;28;20209;-72
2021/12/26 07:32:53;;;;;;;8.80;2.93;;;;;;;5.27;95.19;95348.31;5036614;28;20205;-72
2021/12/26 07:35:20;;;;;;;4.40;2.30;;;;;;;5.30;94.83;95341.94;5037715;28;20225;-72
2021/12/26 07:37:46;;;;;;;6.73;3.23;;;;;;;5.39;95.01;95352.19;5037199;28;20216;-72
2021/12/26 07:40:13;;;;;;;6.87;3.27;;;;;;;5.36;94.82;95355.16;5037123;28;20205;-72
2021/12/26 07:42:40;;;;;;;6.50;3.53;;;;;;;5.25;94.83;95349.47;5037190;28;20204;-72
2021/12/26 07:45:10;;;;;;;7.27;3.07;;;;;;;5.40;96.62;95353.84;5037897;28;20237;-72
2021/12/26 07:47:36;;;;;;;2.10;1.30;;;;;;;5.10;96.66;95351.91;5036594;28;20208;-72
2021/12/26 07:50:03;;;;;;;5.80;2.80;;;;;;;5.13;95.92;95356.81;5036981;28;20205;-72
2021/12/26 07:52:34;;;;;;;3.77;2.20;;;;;;;5.22;96.28;95345.38;5036706;28;20665;-72
2021/12/26 07:55:03;;;;;;;5.17;3.13;;;;;;;5.11;96.17;95348.31;5037221;28;20343;-72
2021/12/26 07:57:29;;;;;;;5.87;3.63;;;;;;;5.25;95.63;95352.88;5036052;28;20205;-72
2021/12/26 07:59:56;;;;;;;2.53;1.53;;;;;;;5.19;96.20;95350.91;5037433;28;20208;-72
2021/12/26 08:02:23;;;;;;;6.13;3.40;;;;;;;5.44;96.94;95352.50;5036147;28;20205;-72
2021/12/26 08:04:50;;;;;;;4.57;2.37;;;;;;;4.87;97.00;95358.81;5037315;28;20236;-72
2021/12/26 08:07:16;;;;;;;11.57;3.97;;;;;;;5.03;97.40;95350.97;5036627;28;20220;-72
2021/12/26 08:09:43;;;;;;;3.70;2.50;;;;;;;5.14;97.51;95355.84;5036847;28;20212;-72
2021/12/26 08:12:10;;;;;;;3.67;1.67;;;;;;;5.11;98.22;95357.97;5037354;28;20713;-71
2021/12/26 08:14:37;;;;;;;3.27;2.10;;;;;;;5.39;97.13;95352.19;5038608;28;20276;-72
2021/12/26 08:17:04;;;;;;;4.67;3.47;;;;;;;5.37;96.92;95361.19;5038099;28;20228;-71
2021/12/26 08:19:33;;;;;;;6.50;3.23;;;;;;;5.47;97.64;95358.22;5038319;28;20205;-71
2021/12/26 08:21:59;;;;;;;5.53;2.53;;;;;;;5.55;96.67;95360.81;5037945;28;20205;-71
2021/12/26 08:24:26;;;;;;;3.20;2.47;;;;;;;5.66;95.81;95351.78;5037811;28;20604;-72
2021/12/26 08:26:53;;;;;;;3.57;1.87;;;;;;;5.72;95.47;95358.97;5038165;28;20205;-72
2021/12/26 08:29:21;;;;;;;8.43;2.80;;;;;;;5.86;95.34;95353.06;5038418;28;20205;-72
2021/12/26 08:31:50;;;;;;;5.03;2.07;;;;;;;5.93;94.72;95354.84;5037609;28;20197;-72
2021/12/26 08:34:21;;;;;;;5.67;2.93;;;;;;;6.06;93.71;95355.09;5037475;28;20322;-72
2021/12/26 08:36:57;;;;;;;3.07;2.33;;;;;;;6.26;94.36;95356.28;5039009;28;20221;-72
2021/12/26 08:39:24;;;;;;;2.23;1.73;;;;;;;5.96;94.01;95362.31;5037766;28;20217;-71
2021/12/26 08:41:51;;;;;;;5.17;2.10;;;;;;;5.97;94.13;95363.97;5038328;28;20204;-72
2021/12/26 08:44:18;;;;;;;3.10;1.80;;;;;;;5.80;95.26;95362.38;5037483;28;20221;-72
2021/12/26 08:46:45;;;;;;;2.97;1.90;;;;;;;5.86;94.95;95361.72;5038000;28;20205;-71
2021/12/26 08:49:12;;;;;;;5.80;1.70;;;;;;;5.95;95.06;95358.06;5038629;28;20205;-71
2021/12/26 08:51:38;;;;;;;2.97;1.90;;;;;;;5.87;94.85;95357.28;5038398;28;20197;-71
2021/12/26 08:54:06;;;;;;;4.67;2.53;;;;;;;6.24;95.13;95350.41;5037660;28;20599;-71
2021/12/26 08:56:33;;;;;;;7.30;2.63;;;;;;;5.95;95.75;95359.88;5038528;28;20232;-71
2021/12/26 08:59:00;;;;;;;5.43;3.10;;;;;;;5.72;96.04;95364.19;5038493;28;20678;-71
2021/12/26 09:01:26;;;;;;;6.53;2.83;;;;;;;6.07;95.50;95359.31;5038109;28;20205;-71
2021/12/26 09:03:53;;;;;;;4.93;2.77;;;;;;;6.22;94.69;95365.47;5036532;28;20221;-72
2021/12/26 09:06:20;;;;;;;8.20;1.63;;;;;;;6.01;94.73;95369.66;5038242;28;20788;-71
2021/12/26 09:08:46;;;;;;;6.57;2.80;;;;;;;6.05;94.73;95375.19;5039106;28;20201;-71
2021/12/26 09:11:16;;;;;;;2.57;1.97;;;;;;;5.97;96.74;95373.59;5042285;28;20209;-72
2021/12/26 09:13:42;;;;;;;4.07;2.17;;;;;;;6.12;95.20;95377.94;5041707;28;20225;-71
2021/12/26 09:16:09;;;;;;;6.83;3.43;;;;;;;6.24;94.83;95372.16;5042917;28;20221;-71
2021/12/26 09:18:36;;;;;;;3.87;2.13;;;;;;;6.12;95.65;95373.53;5043128;28;20356;-71
2021/12/26 09:21:03;;;;;;;9.23;2.00;;;;;;;6.11;95.40;95377.13;5042936;28;20201;-72
2021/12/26 09:23:29;;;;;;;4.13;2.07;;;;;;;6.15;96.28;95373.19;5041847;28;20812;-71
2021/12/26 09:25:56;;;;;;;3.97;1.93;;;;;;;6.14;95.91;95379.38;5040888;28;20197;-72
2021/12/26 09:28:25;;;;;;;3.27;1.67;;;;;;;6.47;96.18;95373.00;5041593;28;20205;-71
2021/12/26 09:30:52;;;;;;;5.20;2.53;;;;;;;6.38;95.20;95381.88;5042160;28;20209;-71
2021/12/26 09:33:19;;;;;;;2.40;1.63;;;;;;;6.68;94.34;95381.88;5038118;28;20228;-71
2021/12/26 09:35:46;;;;;;;3.20;2.13;;;;;;;6.68;94.08;95381.03;5041575;28;20636;-72
2021/12/26 09:38:13;;;;;;;6.07;3.00;;;;;;;6.77;93.69;95385.22;5041812;28;20201;-72
2021/12/26 09:40:40;;;;;;;5.47;3.30;;;;;;;6.70;93.81;95384.31;5040615;28;20720;-72
2021/12/26 09:43:07;;;;;;;5.83;3.03;;;;;;;6.58;94.94;95384.88;5040007;28;20228;-71
2021/12/26 09:45:35;;;;;;;5.50;3.00;;;;;;;6.83;94.94;95376.69;5041335;28;20209;-72
2021/12/26 09:48:01;;;;;;;3.47;2.63;;;;;;;6.57;95.32;95376.22;5041777;28;20205;-72
2021/12/26 09:50:28;;;;;;;5.63;3.20;;;;;;;6.66;94.71;95377.78;5041826;28;20209;-71
2021/12/26 09:52:55;;;;;;;4.63;2.93;;;;;;;6.75;94.58;95371.50;5040400;28;20984;-72
2021/12/26 09:55:27;;;;;;;6.97;3.93;;;;;;;6.77;96.29;95377.38;5038626;28;20201;-69
2021/12/26 09:57:53;;;;;;;4.23;2.50;;;;;;;6.56;95.62;95379.81;5039294;28;20224;-70
2021/12/26 10:00:22;;;;;;;3.57;1.87;;;;;;;6.57;97.53;95376.22;5038003;28;20205;-70
2021/12/26 10:03:09;;;;;;;5.83;3.97;;;;;;;7.10;95.26;95365.66;5037664;28;20236;-72
2021/12/26 10:05:55;;;;;;;4.93;2.47;;;;;;;7.12;95.70;95368.91;5037760;28;20205;-72
2021/12/26 10:08:21;;;;;;;5.77;3.67;;;;;;;6.91;95.34;95361.72;5038271;28;20205;-73
2021/12/26 10:11:10;;;;;;;8.23;1.77;;;;;;;7.33;94.47;95365.44;5037871;28;20208;-72
2021/12/26 10:13:39;;;;;;;5.17;3.00;;;;;;;6.92;94.96;95362.53;5037436;28;20231;-72
2021/12/26 10:16:06;;;;;;;8.80;3.37;;;;;;;7.11;95.00;95362.03;5037245;28;20233;-70
2021/12/26 10:18:39;;;;;;;3.77;2.33;;;;;;;7.19;94.98;95365.38;5038303;28;21162;-73
2021/12/26 10:21:22;;;;;;;7.47;2.43;;;;;;;7.48;93.67;95355.78;5037179;28;20213;-72
2021/12/26 10:23:49;;;;;;;4.87;2.17;;;;;;;6.85;94.85;95356.38;5037513;28;20229;-72
2021/12/26 10:26:20;;;;;;;5.30;2.33;;;;;;;7.17;95.72;95356.13;5037779;28;20201;-73
2021/12/26 10:29:19;;;;;;;5.47;3.87;;;;;;;7.45;94.83;95353.50;5038236;28;20324;-73
2021/12/26 10:31:55;;;;;;;8.27;3.40;;;;;;;7.28;95.53;95349.44;5036824;28;20729;-72
2021/12/26 10:34:27;;;;;;;7.13;3.27;;;;;;;7.49;94.51;95343.50;5036959;28;20315;-72
2021/12/26 10:36:55;;;;;;;3.47;2.23;;;;;;;7.04;95.78;95345.41;5037272;28;20611;-72
2021/12/26 10:39:23;;;;;;;6.73;2.70;;;;;;;7.05;97.03;95337.38;5037579;28;20877;-72
2021/12/26 10:41:52;;;;;;;5.10;3.00;;;;;;;7.11;96.04;95336.66;5037530;28;20201;-72
2021/12/26 10:44:31;;;;;;;4.03;2.63;;;;;;;7.55;94.92;95340.97;5037328;28;20236;-73
2021/12/26 10:47:00;;;;;;;5.67;2.23;;;;;;;7.05;96.96;95342.63;5037336;28;20197;-72
2021/12/26 10:49:35;;;;;;;4.73;2.67;;;;;;;7.38;97.46;95336.91;5037585;28;20216;-72
2021/12/26 10:52:02;;;;;;;5.87;2.27;;;;;;;7.26;95.84;95338.31;5038349;28;20216;-73
2021/12/26 10:54:31;;;;;;;2.47;1.80;;;;;;;7.29;95.37;95340.59;5037080;28;20221;-72
2021/12/26 10:57:13;;;;;;;6.93;3.20;;;;;;;7.95;94.12;95336.06;5037020;28;20248;-73
2021/12/26 10:59:44;;;;;;;5.60;2.97;;;;;;;7.91;99.70;95332.16;5037685;28;21006;-72
2021/12/26 11:02:22;;;;;;;9.07;4.10;;;;;;;7.74;96.62;95327.31;5038419;28;20201;-72
2021/12/26 11:04:58;;;;;;;4.23;2.83;;;;;;;7.90;95.00;95330.56;5037986;28;20324;-72
2021/12/26 11:07:25;;;;;;;4.70;2.13;;;;;;;7.38;95.98;95334.28;5036030;28;20215;-70
2021/12/26 11:10:06;;;;;;;5.80;2.23;;;;;;;7.73;95.93;95323.06;5038465;28;20205;-70
2021/12/26 11:12:42;;;;;;;4.43;3.10;;;;;;;7.89;95.42;95330.72;5037163;28;20215;-72
2021/12/26 11:15:09;;;;;;;11.63;3.17;;;;;;;7.83;95.75;95328.03;5038772;28;20197;-72
2021/12/26 11:17:42;;;;;;;9.27;2.93;;;;;;;7.92;95.17;95327.75;5038089;28;20236;-73
2021/12/26 11:20:19;;;;;;;6.70;2.93;;;;;;;8.25;94.73;95318.47;5038031;28;20221;-72
2021/12/26 11:22:45;;;;;;;5.03;3.17;;;;;;;7.91;94.70;95321.69;5037098;28;20216;-72
2021/12/26 11:25:12;;;;;;;4.90;2.37;;;;;;;7.91;94.66;95321.69;5038178;28;20677;-73
2021/12/26 11:27:39;;;;;;;5.80;2.43;;;;;;;7.99;94.46;95324.22;5037744;28;21090;-72
2021/12/26 11:30:07;;;;;;;9.47;3.63;;;;;;;8.16;94.72;95314.34;5037959;28;20212;-73
2021/12/26 11:32:34;;;;;;;10.13;4.17;;;;;;;8.13;94.73;95312.06;5037116;28;20201;-72
2021/12/26 11:35:02;;;;;;;3.90;2.13;;;;;;;7.91;95.64;95324.31;5037884;28;20229;-73
2021/12/26 11:37:31;;;;;;;6.70;3.37;;;;;;;8.33;95.03;95313.16;5037281;28;20248;-72
2021/12/26 11:39:58;;;;;;;8.20;3.53;;;;;;;8.09;94.88;95313.44;5037793;28;20216;-72
2021/12/26 11:43:07;;;;;;;9.30;4.23;;;;;;;8.39;93.84;95304.50;5037335;28;20209;-72
2021/12/26 11:45:41;;;;;;;9.67;2.90;;;;;;;8.14;94.90;95301.41;5017107;28;20208;-72
2021/12/26 11:48:36;;;;;;;7.43;3.87;;;;;;;8.42;94.55;95301.53;5037444;28;20723;-72